sensor_id;sensor_type;location;lat;lon;timestamp;noise_LAeq;noise_LA_min;noise_LA_max;noise_LA01;noise_LA95
77134;Laerm;25175;50.140;18.990;2023-04-28T00:00:36;39.42;35.95;43.61;;
77134;Laerm;25175;50.140;18.990;2023-04-28T00:03:43;40.06;36.82;43.84;;
77134;Laerm;25175;50.140;18.990;2023-04-28T00:06:50;40.89;36.73;45.16;;
77134;Laerm;25175;50.140;18.990;2023-04-28T00:09:57;42.22;38.27;45.49;;
77134;Laerm;25175;50.140;18.990;2023-04-28T00:13:03;43.00;38.61;55.87;;
77134;Laerm;25175;50.140;18.990;2023-04-28T00:16:11;39.32;36.47;43.10;;
77134;Laerm;25175;50.140;18.990;2023-04-28T00:19:20;38.64;35.99;41.93;;
77134;Laerm;25175;50.140;18.990;2023-04-28T00:22:27;41.20;35.21;51.55;;
77134;Laerm;25175;50.140;18.990;2023-04-28T00:25:33;41.54;36.80;47.39;;
77134;Laerm;25175;50.140;18.990;2023-04-28T00:28:39;41.14;36.32;53.11;;
77134;Laerm;25175;50.140;18.990;2023-04-28T00:31:45;39.98;35.90;47.22;;
77134;Laerm;25175;50.140;18.990;2023-04-28T00:34:52;40.10;35.56;46.43;;
77134;Laerm;25175;50.140;18.990;2023-04-28T00:37:58;38.83;35.83;44.94;;
77134;Laerm;25175;50.140;18.990;2023-04-28T00:41:10;37.92;34.45;44.17;;
77134;Laerm;25175;50.140;18.990;2023-04-28T00:44:17;40.60;34.93;55.04;;
77134;Laerm;25175;50.140;18.990;2023-04-28T00:47:23;38.47;35.29;45.12;;
77134;Laerm;25175;50.140;18.990;2023-04-28T00:50:39;39.26;35.26;45.12;;
77134;Laerm;25175;50.140;18.990;2023-04-28T00:53:44;38.81;35.98;50.07;;
77134;Laerm;25175;50.140;18.990;2023-04-28T00:56:50;39.35;35.65;43.71;;
77134;Laerm;25175;50.140;18.990;2023-04-28T00:59:59;40.02;36.21;46.16;;
77134;Laerm;25175;50.140;18.990;2023-04-28T01:06:41;38.35;35.40;42.28;;
77134;Laerm;25175;50.140;18.990;2023-04-28T01:09:51;40.10;34.35;53.04;;
77134;Laerm;25175;50.140;18.990;2023-04-28T01:13:00;37.02;34.19;41.29;;
77134;Laerm;25175;50.140;18.990;2023-04-28T01:16:26;38.43;34.97;44.77;;
77134;Laerm;25175;50.140;18.990;2023-04-28T01:19:35;38.54;34.80;46.94;;
77134;Laerm;25175;50.140;18.990;2023-04-28T01:22:42;39.84;35.93;44.71;;
77134;Laerm;25175;50.140;18.990;2023-04-28T01:25:51;41.92;38.07;49.45;;
77134;Laerm;25175;50.140;18.990;2023-04-28T01:29:22;43.25;38.39;56.09;;
77134;Laerm;25175;50.140;18.990;2023-04-28T01:36:13;43.17;37.46;59.72;;
77134;Laerm;25175;50.140;18.990;2023-04-28T01:39:19;43.64;38.87;47.60;;
77134;Laerm;25175;50.140;18.990;2023-04-28T01:42:27;44.34;39.69;52.76;;
77134;Laerm;25175;50.140;18.990;2023-04-28T01:45:37;43.35;39.44;48.50;;
77134;Laerm;25175;50.140;18.990;2023-04-28T01:48:42;42.55;38.04;55.63;;
77134;Laerm;25175;50.140;18.990;2023-04-28T01:52:09;42.34;38.03;49.29;;
77134;Laerm;25175;50.140;18.990;2023-04-28T01:55:14;45.24;40.28;51.42;;
77134;Laerm;25175;50.140;18.990;2023-04-28T01:58:22;44.03;38.54;49.14;;
77134;Laerm;25175;50.140;18.990;2023-04-28T02:01:27;41.94;37.66;46.05;;
77134;Laerm;25175;50.140;18.990;2023-04-28T02:04:33;42.17;37.91;46.52;;
77134;Laerm;25175;50.140;18.990;2023-04-28T02:07:38;42.54;38.69;50.04;;
77134;Laerm;25175;50.140;18.990;2023-04-28T02:10:44;43.79;38.82;51.20;;
77134;Laerm;25175;50.140;18.990;2023-04-28T02:13:52;43.99;39.06;49.62;;
77134;Laerm;25175;50.140;18.990;2023-04-28T02:16:58;43.48;38.86;51.61;;
77134;Laerm;25175;50.140;18.990;2023-04-28T02:20:05;41.56;36.89;47.70;;
77134;Laerm;25175;50.140;18.990;2023-04-28T02:23:11;42.04;37.77;47.03;;
77134;Laerm;25175;50.140;18.990;2023-04-28T02:26:17;42.04;38.68;48.59;;
77134;Laerm;25175;50.140;18.990;2023-04-28T02:29:47;41.86;37.90;49.73;;
77134;Laerm;25175;50.140;18.990;2023-04-28T02:32:53;43.43;39.52;52.25;;
77134;Laerm;25175;50.140;18.990;2023-04-28T02:36:01;41.16;36.74;47.00;;
77134;Laerm;25175;50.140;18.990;2023-04-28T02:39:18;41.98;37.09;47.66;;
77134;Laerm;25175;50.140;18.990;2023-04-28T02:42:27;43.82;38.61;50.00;;
77134;Laerm;25175;50.140;18.990;2023-04-28T02:45:36;44.56;39.03;54.62;;
77134;Laerm;25175;50.140;18.990;2023-04-28T02:48:41;44.59;39.38;48.81;;
77134;Laerm;25175;50.140;18.990;2023-04-28T02:51:48;44.43;40.01;54.67;;
77134;Laerm;25175;50.140;18.990;2023-04-28T02:54:54;44.68;40.48;49.47;;
77134;Laerm;25175;50.140;18.990;2023-04-28T02:58:02;46.03;40.59;60.08;;
77134;Laerm;25175;50.140;18.990;2023-04-28T03:01:09;43.85;38.57;52.93;;
77134;Laerm;25175;50.140;18.990;2023-04-28T03:04:15;44.23;39.66;56.14;;
77134;Laerm;25175;50.140;18.990;2023-04-28T03:07:21;44.56;39.52;62.26;;
77134;Laerm;25175;50.140;18.990;2023-04-28T03:10:28;44.72;39.63;62.04;;
77134;Laerm;25175;50.140;18.990;2023-04-28T03:13:33;45.38;39.84;58.59;;
77134;Laerm;25175;50.140;18.990;2023-04-28T03:16:43;45.16;40.59;55.24;;
77134;Laerm;25175;50.140;18.990;2023-04-28T03:19:50;46.04;39.73;57.71;;
77134;Laerm;25175;50.140;18.990;2023-04-28T03:22:55;44.61;40.54;52.29;;
77134;Laerm;25175;50.140;18.990;2023-04-28T03:26:19;45.75;39.44;59.87;;
77134;Laerm;25175;50.140;18.990;2023-04-28T03:29:28;44.14;39.07;53.09;;
77134;Laerm;25175;50.140;18.990;2023-04-28T03:32:35;45.29;39.91;55.33;;
77134;Laerm;25175;50.140;18.990;2023-04-28T03:35:42;46.56;40.96;57.03;;
77134;Laerm;25175;50.140;18.990;2023-04-28T03:38:48;50.40;40.60;68.06;;
77134;Laerm;25175;50.140;18.990;2023-04-28T03:41:53;44.68;39.96;57.73;;
77134;Laerm;25175;50.140;18.990;2023-04-28T03:45:28;45.50;39.75;54.77;;
77134;Laerm;25175;50.140;18.990;2023-04-28T03:48:39;46.05;40.78;54.07;;
77134;Laerm;25175;50.140;18.990;2023-04-28T03:51:45;44.61;39.91;57.90;;
77134;Laerm;25175;50.140;18.990;2023-04-28T03:54:53;45.83;39.72;57.40;;
77134;Laerm;25175;50.140;18.990;2023-04-28T03:57:58;44.31;39.37;53.63;;
77134;Laerm;25175;50.140;18.990;2023-04-28T04:01:05;45.71;38.95;56.89;;
77134;Laerm;25175;50.140;18.990;2023-04-28T04:04:12;53.64;39.36;72.18;;
77134;Laerm;25175;50.140;18.990;2023-04-28T04:07:27;44.11;39.28;55.18;;
77134;Laerm;25175;50.140;18.990;2023-04-28T04:10:32;45.40;40.99;54.56;;
77134;Laerm;25175;50.140;18.990;2023-04-28T04:13:38;45.96;40.75;56.98;;
77134;Laerm;25175;50.140;18.990;2023-04-28T04:16:47;48.43;41.83;57.62;;
77134;Laerm;25175;50.140;18.990;2023-04-28T04:19:55;46.25;41.08;56.26;;
77134;Laerm;25175;50.140;18.990;2023-04-28T04:23:01;47.48;41.26;57.96;;
77134;Laerm;25175;50.140;18.990;2023-04-28T04:26:08;47.24;41.53;56.57;;
77134;Laerm;25175;50.140;18.990;2023-04-28T04:29:14;48.57;41.15;64.10;;
77134;Laerm;25175;50.140;18.990;2023-04-28T04:32:20;46.16;40.93;55.49;;
77134;Laerm;25175;50.140;18.990;2023-04-28T04:35:27;46.61;40.81;57.45;;
77134;Laerm;25175;50.140;18.990;2023-04-28T04:38:33;47.49;40.26;60.02;;
77134;Laerm;25175;50.140;18.990;2023-04-28T04:41:48;47.35;41.06;56.99;;
77134;Laerm;25175;50.140;18.990;2023-04-28T04:45:17;45.99;39.80;58.88;;
77134;Laerm;25175;50.140;18.990;2023-04-28T04:48:24;46.43;39.94;56.72;;
77134;Laerm;25175;50.140;18.990;2023-04-28T04:51:34;46.78;39.76;62.02;;
77134;Laerm;25175;50.140;18.990;2023-04-28T04:54:40;47.36;40.23;69.10;;
77134;Laerm;25175;50.140;18.990;2023-04-28T04:57:46;49.05;40.18;64.82;;
77134;Laerm;25175;50.140;18.990;2023-04-28T05:01:04;48.60;38.85;62.79;;
77134;Laerm;25175;50.140;18.990;2023-04-28T05:04:10;47.39;39.12;59.98;;
77134;Laerm;25175;50.140;18.990;2023-04-28T05:07:20;50.00;39.22;68.31;;
77134;Laerm;25175;50.140;18.990;2023-04-28T05:10:27;46.85;40.26;59.48;;
77134;Laerm;25175;50.140;18.990;2023-04-28T05:13:32;46.49;39.97;59.17;;
77134;Laerm;25175;50.140;18.990;2023-04-28T05:16:40;46.14;39.28;57.68;;
77134;Laerm;25175;50.140;18.990;2023-04-28T05:19:57;51.75;40.20;75.63;;
77134;Laerm;25175;50.140;18.990;2023-04-28T05:23:06;46.56;39.64;69.46;;
77134;Laerm;25175;50.140;18.990;2023-04-28T05:26:14;48.71;39.41;65.49;;
77134;Laerm;25175;50.140;18.990;2023-04-28T05:29:21;50.24;38.82;63.06;;
77134;Laerm;25175;50.140;18.990;2023-04-28T05:32:28;46.74;38.94;57.36;;
77134;Laerm;25175;50.140;18.990;2023-04-28T05:35:34;47.12;38.83;59.64;;
77134;Laerm;25175;50.140;18.990;2023-04-28T05:38:43;48.33;39.34;61.80;;
77134;Laerm;25175;50.140;18.990;2023-04-28T05:41:49;46.67;39.10;55.69;;
77134;Laerm;25175;50.140;18.990;2023-04-28T05:44:54;50.20;38.59;69.70;;
77134;Laerm;25175;50.140;18.990;2023-04-28T05:48:00;49.51;39.76;60.07;;
77134;Laerm;25175;50.140;18.990;2023-04-28T05:51:08;47.56;40.16;57.10;;
77134;Laerm;25175;50.140;18.990;2023-04-28T05:54:16;48.10;39.61;61.23;;
77134;Laerm;25175;50.140;18.990;2023-04-28T05:57:25;49.25;39.06;61.23;;
77134;Laerm;25175;50.140;18.990;2023-04-28T06:00:32;47.01;38.63;55.93;;
77134;Laerm;25175;50.140;18.990;2023-04-28T06:03:38;47.58;38.35;61.35;;
77134;Laerm;25175;50.140;18.990;2023-04-28T06:06:44;46.08;38.07;56.86;;
77134;Laerm;25175;50.140;18.990;2023-04-28T06:09:53;47.24;37.93;60.96;;
77134;Laerm;25175;50.140;18.990;2023-04-28T06:13:00;47.48;38.44;58.09;;
77134;Laerm;25175;50.140;18.990;2023-04-28T06:16:06;52.24;38.55;70.27;;
77134;Laerm;25175;50.140;18.990;2023-04-28T06:19:13;48.25;38.05;63.68;;
77134;Laerm;25175;50.140;18.990;2023-04-28T06:22:19;46.06;37.34;59.35;;
77134;Laerm;25175;50.140;18.990;2023-04-28T06:25:29;47.02;37.99;59.05;;
77134;Laerm;25175;50.140;18.990;2023-04-28T06:28:40;44.20;38.05;55.03;;
77134;Laerm;25175;50.140;18.990;2023-04-28T06:31:47;49.00;38.65;65.06;;
77134;Laerm;25175;50.140;18.990;2023-04-28T06:34:56;47.27;38.70;59.13;;
77134;Laerm;25175;50.140;18.990;2023-04-28T06:38:02;46.95;38.05;60.04;;
77134;Laerm;25175;50.140;18.990;2023-04-28T06:41:13;45.99;37.51;60.73;;
77134;Laerm;25175;50.140;18.990;2023-04-28T06:44:24;46.85;37.82;57.76;;
77134;Laerm;25175;50.140;18.990;2023-04-28T06:47:33;46.14;38.04;54.07;;
77134;Laerm;25175;50.140;18.990;2023-04-28T06:52:45;47.54;37.57;63.36;;
77134;Laerm;25175;50.140;18.990;2023-04-28T06:54:37;45.91;37.36;58.59;;
77134;Laerm;25175;50.140;18.990;2023-04-28T06:57:46;47.38;37.54;62.85;;
77134;Laerm;25175;50.140;18.990;2023-04-28T07:00:51;43.76;37.94;60.96;;
77134;Laerm;25175;50.140;18.990;2023-04-28T07:03:57;45.27;37.55;56.83;;
77134;Laerm;25175;50.140;18.990;2023-04-28T07:07:02;45.48;37.50;58.10;;
77134;Laerm;25175;50.140;18.990;2023-04-28T07:10:10;46.18;37.25;58.03;;
77134;Laerm;25175;50.140;18.990;2023-04-28T07:13:19;47.27;36.55;60.13;;
77134;Laerm;25175;50.140;18.990;2023-04-28T07:16:25;44.05;36.83;58.11;;
77134;Laerm;25175;50.140;18.990;2023-04-28T07:19:33;46.60;36.55;58.79;;
77134;Laerm;25175;50.140;18.990;2023-04-28T07:22:40;46.91;36.41;60.63;;
77134;Laerm;25175;50.140;18.990;2023-04-28T07:25:56;44.05;35.83;58.69;;
77134;Laerm;25175;50.140;18.990;2023-04-28T07:29:07;46.03;36.08;57.28;;
77134;Laerm;25175;50.140;18.990;2023-04-28T07:32:14;44.14;35.17;55.48;;
77134;Laerm;25175;50.140;18.990;2023-04-28T07:35:34;47.68;34.84;67.11;;
77134;Laerm;25175;50.140;18.990;2023-04-28T07:38:41;42.43;34.35;57.05;;
77134;Laerm;25175;50.140;18.990;2023-04-28T07:41:46;43.78;34.18;57.58;;
77134;Laerm;25175;50.140;18.990;2023-04-28T07:44:55;43.72;34.33;59.15;;
77134;Laerm;25175;50.140;18.990;2023-04-28T07:48:05;41.27;34.67;58.16;;
77134;Laerm;25175;50.140;18.990;2023-04-28T07:51:11;42.59;34.46;56.80;;
77134;Laerm;25175;50.140;18.990;2023-04-28T07:54:16;53.87;35.80;78.19;;
77134;Laerm;25175;50.140;18.990;2023-04-28T07:57:23;44.23;34.63;68.95;;
77134;Laerm;25175;50.140;18.990;2023-04-28T08:00:32;46.13;35.04;61.00;;
77134;Laerm;25175;50.140;18.990;2023-04-28T08:03:38;48.25;35.47;64.57;;
77134;Laerm;25175;50.140;18.990;2023-04-28T08:06:45;43.77;34.61;57.65;;
77134;Laerm;25175;50.140;18.990;2023-04-28T08:09:51;48.15;34.27;64.74;;
77134;Laerm;25175;50.140;18.990;2023-04-28T08:12:56;44.94;35.24;64.11;;
77134;Laerm;25175;50.140;18.990;2023-04-28T08:16:05;44.53;34.14;58.45;;
77134;Laerm;25175;50.140;18.990;2023-04-28T08:19:13;46.02;35.42;59.75;;
77134;Laerm;25175;50.140;18.990;2023-04-28T08:22:22;45.36;35.15;55.65;;
77134;Laerm;25175;50.140;18.990;2023-04-28T08:25:27;42.25;34.60;55.86;;
77134;Laerm;25175;50.140;18.990;2023-04-28T08:28:33;52.09;35.56;74.11;;
77134;Laerm;25175;50.140;18.990;2023-04-28T08:31:41;47.11;35.18;59.69;;
77134;Laerm;25175;50.140;18.990;2023-04-28T08:34:47;44.59;36.18;56.60;;
77134;Laerm;25175;50.140;18.990;2023-04-28T08:38:13;45.00;35.98;56.96;;
77134;Laerm;25175;50.140;18.990;2023-04-28T08:41:20;46.12;35.45;58.66;;
77134;Laerm;25175;50.140;18.990;2023-04-28T08:44:27;47.27;37.52;62.99;;
77134;Laerm;25175;50.140;18.990;2023-04-28T08:47:39;46.94;35.72;61.49;;
77134;Laerm;25175;50.140;18.990;2023-04-28T08:50:50;47.17;35.85;61.31;;
77134;Laerm;25175;50.140;18.990;2023-04-28T08:54:01;48.56;35.35;64.35;;
77134;Laerm;25175;50.140;18.990;2023-04-28T08:57:09;46.69;35.96;62.76;;
77134;Laerm;25175;50.140;18.990;2023-04-28T09:00:17;47.40;35.61;60.03;;
77134;Laerm;25175;50.140;18.990;2023-04-28T09:03:26;45.18;35.41;61.78;;
77134;Laerm;25175;50.140;18.990;2023-04-28T09:06:37;46.77;35.84;63.12;;
77134;Laerm;25175;50.140;18.990;2023-04-28T09:10:22;48.31;36.23;64.79;;
77134;Laerm;25175;50.140;18.990;2023-04-28T09:13:32;47.25;34.74;67.56;;
77134;Laerm;25175;50.140;18.990;2023-04-28T09:20:42;45.87;35.87;58.72;;
77134;Laerm;25175;50.140;18.990;2023-04-28T09:24:36;46.82;36.62;61.73;;
77134;Laerm;25175;50.140;18.990;2023-04-28T09:27:49;49.51;37.38;64.24;;
77134;Laerm;25175;50.140;18.990;2023-04-28T09:31:01;52.44;36.27;76.70;;
77134;Laerm;25175;50.140;18.990;2023-04-28T09:34:08;46.31;35.75;61.50;;
77134;Laerm;25175;50.140;18.990;2023-04-28T09:37:23;48.63;34.39;61.61;;
77134;Laerm;25175;50.140;18.990;2023-04-28T09:40:33;46.75;36.46;68.03;;
77134;Laerm;25175;50.140;18.990;2023-04-28T09:44:13;45.01;35.41;59.87;;
77134;Laerm;25175;50.140;18.990;2023-04-28T09:47:24;46.91;35.97;61.92;;
77134;Laerm;25175;50.140;18.990;2023-04-28T09:50:39;48.07;37.49;66.76;;
77134;Laerm;25175;50.140;18.990;2023-04-28T09:53:48;46.29;36.50;59.03;;
77134;Laerm;25175;50.140;18.990;2023-04-28T09:56:56;45.70;37.39;60.02;;
77134;Laerm;25175;50.140;18.990;2023-04-28T10:00:06;45.68;38.27;58.34;;
77134;Laerm;25175;50.140;18.990;2023-04-28T10:06:43;45.82;37.81;58.23;;
77134;Laerm;25175;50.140;18.990;2023-04-28T10:09:52;44.51;39.19;54.68;;
77134;Laerm;25175;50.140;18.990;2023-04-28T10:13:00;45.82;37.59;56.05;;
77134;Laerm;25175;50.140;18.990;2023-04-28T10:16:07;47.23;37.29;58.23;;
77134;Laerm;25175;50.140;18.990;2023-04-28T10:19:49;47.01;35.85;65.75;;
77134;Laerm;25175;50.140;18.990;2023-04-28T10:27:05;45.61;35.90;60.71;;
77134;Laerm;25175;50.140;18.990;2023-04-28T10:30:12;47.00;36.94;64.63;;
77134;Laerm;25175;50.140;18.990;2023-04-28T10:33:24;44.42;36.68;61.35;;
77134;Laerm;25175;50.140;18.990;2023-04-28T10:36:50;44.81;37.78;56.62;;
77134;Laerm;25175;50.140;18.990;2023-04-28T10:40:32;48.00;36.91;66.50;;
77134;Laerm;25175;50.140;18.990;2023-04-28T10:48:15;45.59;36.36;57.93;;
77134;Laerm;25175;50.140;18.990;2023-04-28T10:51:32;46.77;36.63;65.80;;
77134;Laerm;25175;50.140;18.990;2023-04-28T10:54:39;42.80;35.73;57.15;;
77134;Laerm;25175;50.140;18.990;2023-04-28T10:57:44;47.67;36.75;62.54;;
77134;Laerm;25175;50.140;18.990;2023-04-28T11:00:53;44.40;36.83;57.72;;
77134;Laerm;25175;50.140;18.990;2023-04-28T11:04:06;57.64;36.37;82.03;;
77134;Laerm;25175;50.140;18.990;2023-04-28T11:07:15;49.05;36.66;72.91;;
77134;Laerm;25175;50.140;18.990;2023-04-28T11:10:20;45.45;36.91;58.70;;
77134;Laerm;25175;50.140;18.990;2023-04-28T11:13:27;45.80;38.40;56.50;;
77134;Laerm;25175;50.140;18.990;2023-04-28T11:16:33;49.03;37.25;68.12;;
77134;Laerm;25175;50.140;18.990;2023-04-28T11:20:12;46.88;36.53;67.82;;
77134;Laerm;25175;50.140;18.990;2023-04-28T11:23:18;45.92;37.42;58.74;;
77134;Laerm;25175;50.140;18.990;2023-04-28T11:26:46;46.90;37.70;65.36;;
77134;Laerm;25175;50.140;18.990;2023-04-28T11:29:52;45.62;39.33;57.03;;
77134;Laerm;25175;50.140;18.990;2023-04-28T11:33:14;46.45;37.32;64.76;;
77134;Laerm;25175;50.140;18.990;2023-04-28T11:36:40;45.25;37.33;55.59;;
77134;Laerm;25175;50.140;18.990;2023-04-28T11:39:50;44.62;36.53;56.09;;
77134;Laerm;25175;50.140;18.990;2023-04-28T11:42:55;48.10;37.59;60.13;;
77134;Laerm;25175;50.140;18.990;2023-04-28T11:46:06;48.87;36.08;67.22;;
77134;Laerm;25175;50.140;18.990;2023-04-28T11:49:12;46.00;36.10;57.08;;
77134;Laerm;25175;50.140;18.990;2023-04-28T11:52:22;44.14;35.58;59.11;;
77134;Laerm;25175;50.140;18.990;2023-04-28T11:55:28;47.06;36.79;58.00;;
77134;Laerm;25175;50.140;18.990;2023-04-28T11:58:38;47.57;35.88;63.69;;
77134;Laerm;25175;50.140;18.990;2023-04-28T12:01:57;46.05;36.02;58.23;;
77134;Laerm;25175;50.140;18.990;2023-04-28T12:05:06;46.22;36.45;58.82;;
77134;Laerm;25175;50.140;18.990;2023-04-28T12:08:27;44.65;36.81;57.04;;
77134;Laerm;25175;50.140;18.990;2023-04-28T12:11:34;45.84;37.52;64.51;;
77134;Laerm;25175;50.140;18.990;2023-04-28T12:15:10;45.66;36.92;57.08;;
77134;Laerm;25175;50.140;18.990;2023-04-28T12:18:18;49.17;37.69;63.10;;
77134;Laerm;25175;50.140;18.990;2023-04-28T12:21:38;47.36;38.91;63.92;;
77134;Laerm;25175;50.140;18.990;2023-04-28T12:25:03;46.93;37.48;61.36;;
77134;Laerm;25175;50.140;18.990;2023-04-28T12:32:01;47.35;36.80;62.79;;
77134;Laerm;25175;50.140;18.990;2023-04-28T12:35:08;44.90;36.37;57.60;;
77134;Laerm;25175;50.140;18.990;2023-04-28T12:38:14;47.35;35.80;61.77;;
77134;Laerm;25175;50.140;18.990;2023-04-28T12:41:23;44.98;35.32;62.64;;
77134;Laerm;25175;50.140;18.990;2023-04-28T12:44:33;47.07;36.79;61.76;;
77134;Laerm;25175;50.140;18.990;2023-04-28T12:47:39;47.50;37.46;60.97;;
77134;Laerm;25175;50.140;18.990;2023-04-28T12:50:45;46.61;36.97;58.20;;
77134;Laerm;25175;50.140;18.990;2023-04-28T12:53:50;46.52;37.14;62.12;;
77134;Laerm;25175;50.140;18.990;2023-04-28T12:57:01;46.49;37.04;59.97;;
77134;Laerm;25175;50.140;18.990;2023-04-28T13:00:08;46.47;36.97;64.74;;
77134;Laerm;25175;50.140;18.990;2023-04-28T13:03:18;45.73;35.97;56.78;;
77134;Laerm;25175;50.140;18.990;2023-04-28T13:06:23;45.69;36.20;54.71;;
77134;Laerm;25175;50.140;18.990;2023-04-28T13:09:32;46.61;37.47;58.19;;
77134;Laerm;25175;50.140;18.990;2023-04-28T13:12:41;47.12;36.77;61.80;;
77134;Laerm;25175;50.140;18.990;2023-04-28T13:15:47;46.22;36.05;60.41;;
77134;Laerm;25175;50.140;18.990;2023-04-28T13:18:54;49.91;36.82;64.47;;
77134;Laerm;25175;50.140;18.990;2023-04-28T13:22:01;46.22;36.83;62.96;;
77134;Laerm;25175;50.140;18.990;2023-04-28T13:25:09;47.64;35.85;60.89;;
77134;Laerm;25175;50.140;18.990;2023-04-28T13:28:17;47.04;36.43;62.95;;
77134;Laerm;25175;50.140;18.990;2023-04-28T13:31:23;47.58;38.14;64.91;;
77134;Laerm;25175;50.140;18.990;2023-04-28T13:38:09;48.27;37.21;64.81;;
77134;Laerm;25175;50.140;18.990;2023-04-28T13:41:15;48.29;37.42;66.65;;
77134;Laerm;25175;50.140;18.990;2023-04-28T13:44:24;47.97;36.65;62.22;;
77134;Laerm;25175;50.140;18.990;2023-04-28T13:47:30;47.55;38.04;56.23;;
77134;Laerm;25175;50.140;18.990;2023-04-28T13:50:39;47.51;36.71;61.19;;
77134;Laerm;25175;50.140;18.990;2023-04-28T13:53:45;46.88;35.80;64.11;;
77134;Laerm;25175;50.140;18.990;2023-04-28T13:56:56;47.83;35.61;62.95;;
77134;Laerm;25175;50.140;18.990;2023-04-28T14:00:07;46.19;37.78;56.10;;
77134;Laerm;25175;50.140;18.990;2023-04-28T14:03:16;45.34;36.82;58.91;;
77134;Laerm;25175;50.140;18.990;2023-04-28T14:06:43;46.65;37.36;56.83;;
77134;Laerm;25175;50.140;18.990;2023-04-28T14:09:49;45.17;36.01;57.13;;
77134;Laerm;25175;50.140;18.990;2023-04-28T14:12:58;54.72;42.88;69.52;;
77134;Laerm;25175;50.140;18.990;2023-04-28T14:16:07;55.22;48.69;60.56;;
77134;Laerm;25175;50.140;18.990;2023-04-28T14:19:13;56.48;49.94;68.18;;
77134;Laerm;25175;50.140;18.990;2023-04-28T14:22:19;54.66;48.36;60.18;;
77134;Laerm;25175;50.140;18.990;2023-04-28T14:25:38;55.12;48.51;66.04;;
77134;Laerm;25175;50.140;18.990;2023-04-28T14:28:43;55.50;41.13;64.29;;
77134;Laerm;25175;50.140;18.990;2023-04-28T14:31:52;55.70;49.17;63.64;;
77134;Laerm;25175;50.140;18.990;2023-04-28T14:34:58;55.63;49.52;66.96;;
77134;Laerm;25175;50.140;18.990;2023-04-28T14:38:09;54.58;47.04;61.34;;
77134;Laerm;25175;50.140;18.990;2023-04-28T14:44:45;46.81;35.93;60.39;;
77134;Laerm;25175;50.140;18.990;2023-04-28T14:47:53;45.57;34.67;61.41;;
77134;Laerm;25175;50.140;18.990;2023-04-28T14:51:04;45.53;36.36;60.31;;
77134;Laerm;25175;50.140;18.990;2023-04-28T14:54:17;46.43;36.27;58.21;;
77134;Laerm;25175;50.140;18.990;2023-04-28T14:57:25;43.93;37.12;54.25;;
77134;Laerm;25175;50.140;18.990;2023-04-28T15:00:30;45.55;38.27;62.41;;
77134;Laerm;25175;50.140;18.990;2023-04-28T15:03:40;44.81;37.02;57.14;;
77134;Laerm;25175;50.140;18.990;2023-04-28T15:06:45;44.79;35.95;56.76;;
77134;Laerm;25175;50.140;18.990;2023-04-28T15:10:00;47.11;36.41;61.87;;
77134;Laerm;25175;50.140;18.990;2023-04-28T15:13:07;48.77;37.71;67.67;;
77134;Laerm;25175;50.140;18.990;2023-04-28T15:16:12;47.81;37.51;66.97;;
77134;Laerm;25175;50.140;18.990;2023-04-28T15:19:22;45.86;35.85;58.13;;
77134;Laerm;25175;50.140;18.990;2023-04-28T15:22:28;45.08;35.83;59.74;;
77134;Laerm;25175;50.140;18.990;2023-04-28T15:25:34;46.30;38.11;61.78;;
77134;Laerm;25175;50.140;18.990;2023-04-28T15:28:42;44.45;35.97;56.92;;
77134;Laerm;25175;50.140;18.990;2023-04-28T15:31:48;41.22;35.38;54.50;;
77134;Laerm;25175;50.140;18.990;2023-04-28T15:35:22;42.71;35.67;52.45;;
77134;Laerm;25175;50.140;18.990;2023-04-28T15:38:44;47.62;35.53;68.05;;
77134;Laerm;25175;50.140;18.990;2023-04-28T15:42:06;44.50;35.56;59.17;;
77134;Laerm;25175;50.140;18.990;2023-04-28T15:45:12;49.16;35.23;71.59;;
77134;Laerm;25175;50.140;18.990;2023-04-28T15:48:35;44.36;36.34;64.97;;
77134;Laerm;25175;50.140;18.990;2023-04-28T15:51:45;44.90;36.30;55.39;;
77134;Laerm;25175;50.140;18.990;2023-04-28T15:54:50;44.96;35.95;56.22;;
77134;Laerm;25175;50.140;18.990;2023-04-28T15:58:00;46.24;36.77;58.55;;
77134;Laerm;25175;50.140;18.990;2023-04-28T16:01:08;45.80;36.47;65.21;;
77134;Laerm;25175;50.140;18.990;2023-04-28T16:04:19;47.86;36.66;67.66;;
77134;Laerm;25175;50.140;18.990;2023-04-28T16:11:36;44.65;35.07;57.53;;
77134;Laerm;25175;50.140;18.990;2023-04-28T16:14:42;44.38;35.66;55.58;;
77134;Laerm;25175;50.140;18.990;2023-04-28T16:17:47;45.31;35.69;56.00;;
77134;Laerm;25175;50.140;18.990;2023-04-28T16:20:53;50.69;35.72;75.12;;
77134;Laerm;25175;50.140;18.990;2023-04-28T16:24:03;42.70;35.34;53.61;;
77134;Laerm;25175;50.140;18.990;2023-04-28T16:27:10;45.93;35.59;58.96;;
77134;Laerm;25175;50.140;18.990;2023-04-28T16:30:18;45.42;35.44;57.11;;
77134;Laerm;25175;50.140;18.990;2023-04-28T16:33:26;45.96;35.36;58.92;;
77134;Laerm;25175;50.140;18.990;2023-04-28T16:36:35;42.74;35.75;60.11;;
77134;Laerm;25175;50.140;18.990;2023-04-28T16:39:43;48.23;36.79;60.63;;
77134;Laerm;25175;50.140;18.990;2023-04-28T16:42:50;45.64;36.20;64.70;;
77134;Laerm;25175;50.140;18.990;2023-04-28T16:45:56;45.27;35.55;55.69;;
77134;Laerm;25175;50.140;18.990;2023-04-28T16:49:02;45.55;35.85;56.42;;
77134;Laerm;25175;50.140;18.990;2023-04-28T16:52:07;43.24;34.93;63.96;;
77134;Laerm;25175;50.140;18.990;2023-04-28T16:55:25;45.71;34.93;65.85;;
77134;Laerm;25175;50.140;18.990;2023-04-28T16:58:31;46.15;35.70;64.91;;
77134;Laerm;25175;50.140;18.990;2023-04-28T17:01:43;44.12;35.33;56.27;;
77134;Laerm;25175;50.140;18.990;2023-04-28T17:04:57;44.23;35.46;57.13;;
77134;Laerm;25175;50.140;18.990;2023-04-28T17:08:06;46.93;35.39;60.25;;
77134;Laerm;25175;50.140;18.990;2023-04-28T17:11:15;44.66;36.05;57.08;;
77134;Laerm;25175;50.140;18.990;2023-04-28T17:14:22;43.38;35.97;58.97;;
77134;Laerm;25175;50.140;18.990;2023-04-28T17:17:27;46.32;36.17;59.78;;
77134;Laerm;25175;50.140;18.990;2023-04-28T17:20:40;45.19;36.30;55.52;;
77134;Laerm;25175;50.140;18.990;2023-04-28T17:23:46;42.09;36.18;53.75;;
77134;Laerm;25175;50.140;18.990;2023-04-28T17:26:58;43.93;36.80;54.88;;
77134;Laerm;25175;50.140;18.990;2023-04-28T17:30:07;45.51;37.30;61.86;;
77134;Laerm;25175;50.140;18.990;2023-04-28T17:33:14;43.00;36.59;56.06;;
77134;Laerm;25175;50.140;18.990;2023-04-28T17:36:21;43.74;35.86;57.28;;
77134;Laerm;25175;50.140;18.990;2023-04-28T17:39:33;42.69;35.24;53.50;;
77134;Laerm;25175;50.140;18.990;2023-04-28T17:42:42;43.40;35.20;57.64;;
77134;Laerm;25175;50.140;18.990;2023-04-28T17:45:48;47.49;35.26;65.52;;
77134;Laerm;25175;50.140;18.990;2023-04-28T17:48:55;44.14;34.66;65.29;;
77134;Laerm;25175;50.140;18.990;2023-04-28T17:52:02;42.90;34.61;54.89;;
77134;Laerm;25175;50.140;18.990;2023-04-28T17:55:10;42.77;35.07;55.26;;
77134;Laerm;25175;50.140;18.990;2023-04-28T17:58:20;42.64;34.26;54.32;;
77134;Laerm;25175;50.140;18.990;2023-04-28T18:01:31;44.40;34.26;59.58;;
77134;Laerm;25175;50.140;18.990;2023-04-28T18:04:40;46.09;34.66;63.16;;